createdAt,value
2018-03-25T00:02:17.553Z,26.83
2018-03-25T00:04:43.786Z,29.60
2018-03-25T00:07:10.038Z,29.30
2018-03-25T00:09:36.308Z,26.47
2018-03-25T00:12:02.570Z,23.67
2018-03-25T00:14:28.826Z,25.30
2018-03-25T00:16:56.230Z,25.53
2018-03-25T00:19:22.483Z,29.87
2018-03-25T00:21:48.737Z,33.07
2018-03-25T00:24:15.024Z,26.07
2018-03-25T00:26:41.262Z,25.30
2018-03-25T00:29:07.510Z,30.37
2018-03-25T00:31:33.797Z,33.17
2018-03-25T00:34:00.050Z,46.10
2018-03-25T00:36:26.428Z,31.10
2018-03-25T00:38:52.749Z,29.10
2018-03-25T00:41:19.038Z,27.30
2018-03-25T00:43:45.280Z,26.17
2018-03-25T00:46:11.548Z,29.73
2018-03-25T00:48:39.878Z,30.93
2018-03-25T00:51:06.133Z,35.07
2018-03-25T00:53:32.469Z,25.93
2018-03-25T00:55:58.751Z,24.67
2018-03-25T00:58:25.028Z,27.97
2018-03-25T01:00:51.361Z,30.17
2018-03-25T01:03:17.587Z,33.70
2018-03-25T01:05:43.821Z,24.50
2018-03-25T01:08:10.116Z,33.73
2018-03-25T01:10:36.358Z,28.37
2018-03-25T01:13:02.592Z,20.87
2018-03-25T01:15:41.077Z,27.27
2018-03-25T01:18:07.359Z,27.67
2018-03-25T01:20:33.645Z,29.60
2018-03-25T01:23:00.021Z,32.97
2018-03-25T01:25:26.273Z,27.83
2018-03-25T01:27:52.553Z,28.40
2018-03-25T01:30:18.810Z,29.93
2018-03-25T01:32:45.093Z,33.07
2018-03-25T01:35:11.331Z,27.80
2018-03-25T01:37:37.605Z,30.03
2018-03-25T01:40:03.867Z,28.10
2018-03-25T01:42:30.178Z,32.17
2018-03-25T01:44:56.437Z,27.43
2018-03-25T01:47:22.779Z,32.50
2018-03-25T01:49:49.092Z,32.93
2018-03-25T01:52:15.352Z,29.63
2018-03-25T01:54:41.809Z,30.30
2018-03-25T01:57:08.069Z,30.30
2018-03-25T01:59:34.340Z,34.40
2018-03-25T02:02:00.725Z,24.47
2018-03-25T02:04:27.038Z,28.40
2018-03-25T02:06:53.374Z,27.33
2018-03-25T02:09:19.632Z,27.27
2018-03-25T02:11:45.918Z,29.47
2018-03-25T02:14:12.251Z,32.83
2018-03-25T02:16:38.522Z,29.60
2018-03-25T02:19:04.836Z,28.00
2018-03-25T02:21:31.165Z,31.23
2018-03-25T02:23:57.398Z,28.10
2018-03-25T02:26:23.803Z,28.07
2018-03-25T02:28:50.128Z,27.77
2018-03-25T02:31:16.414Z,27.23
2018-03-25T02:33:42.701Z,23.40
2018-03-25T02:36:09.032Z,33.73
2018-03-25T02:38:35.369Z,26.97
2018-03-25T02:41:01.678Z,29.33
2018-03-25T02:43:27.952Z,26.10
2018-03-25T02:45:54.236Z,25.80
2018-03-25T02:48:20.530Z,26.77
2018-03-25T02:50:46.792Z,29.97
2018-03-25T02:53:13.080Z,27.17
2018-03-25T02:55:39.398Z,26.83
2018-03-25T02:58:05.680Z,26.53
2018-03-25T03:00:32.077Z,25.70
2018-03-25T03:02:58.407Z,24.23
2018-03-25T03:05:24.707Z,23.60
2018-03-25T03:07:50.974Z,25.20
2018-03-25T03:10:18.265Z,27.53
2018-03-25T03:12:44.525Z,27.60
2018-03-25T03:15:10.813Z,28.30
2018-03-25T03:17:37.117Z,32.07
2018-03-25T03:20:03.427Z,27.70
2018-03-25T03:22:29.728Z,27.90
2018-03-25T03:24:56.009Z,29.50
2018-03-25T03:27:22.514Z,29.47
2018-03-25T03:29:48.765Z,24.53
2018-03-25T03:32:15.050Z,27.67
2018-03-25T03:34:41.634Z,28.40
2018-03-25T03:37:07.889Z,25.60
2018-03-25T03:39:34.247Z,24.33
2018-03-25T03:42:00.562Z,27.97
2018-03-25T03:44:26.816Z,27.67
2018-03-25T03:46:53.386Z,24.50
2018-03-25T03:49:19.687Z,29.33
2018-03-25T03:51:46.159Z,26.47
2018-03-25T03:54:12.625Z,26.63
2018-03-25T03:56:38.929Z,30.17
2018-03-25T03:59:05.564Z,29.00
2018-03-25T04:01:31.849Z,32.60
2018-03-25T04:03:58.185Z,28.30
2018-03-25T04:06:24.533Z,36.00
2018-03-25T04:08:50.801Z,41.20
2018-03-25T04:11:17.496Z,32.13
2018-03-25T04:13:43.753Z,38.00
2018-03-25T04:16:10.148Z,31.83
2018-03-25T04:18:36.602Z,35.67
2018-03-25T04:21:02.926Z,31.07
2018-03-25T04:23:29.630Z,32.73
2018-03-25T04:25:55.876Z,30.43
2018-03-25T04:28:22.254Z,33.63
2018-03-25T04:30:48.645Z,39.10
2018-03-25T04:33:15.870Z,36.47
2018-03-25T04:35:42.560Z,30.83
2018-03-25T04:38:08.832Z,34.23
2018-03-25T04:40:35.405Z,30.93
2018-03-25T04:43:01.686Z,31.13
2018-03-25T04:45:28.023Z,32.73
2018-03-25T04:47:54.476Z,29.80
2018-03-25T04:50:20.745Z,29.50
2018-03-25T04:52:47.290Z,33.00
2018-03-25T04:55:13.562Z,32.70
2018-03-25T04:57:39.814Z,32.70
2018-03-25T05:00:06.321Z,30.93
2018-03-25T05:02:32.576Z,28.97
2018-03-25T05:04:59.069Z,30.73
2018-03-25T05:07:25.344Z,33.47
2018-03-25T05:09:51.585Z,33.93
2018-03-25T05:12:18.164Z,29.87
2018-03-25T05:14:44.424Z,34.13
2018-03-25T05:17:10.910Z,35.17
2018-03-25T05:19:37.174Z,35.67
2018-03-25T05:22:03.440Z,84.17
2018-03-25T05:24:29.719Z,46.30
2018-03-25T05:26:55.960Z,34.20
2018-03-25T05:29:22.226Z,37.40
2018-03-25T05:31:48.485Z,37.10
2018-03-25T05:34:14.746Z,38.27
2018-03-25T05:36:40.988Z,32.83
2018-03-25T05:39:07.257Z,34.07
2018-03-25T05:41:33.504Z,37.27
2018-03-25T05:43:59.770Z,40.67
2018-03-25T05:46:26.041Z,43.97
2018-03-25T05:48:52.281Z,37.23
2018-03-25T05:51:18.641Z,33.20
2018-03-25T05:53:44.884Z,40.37
2018-03-25T05:56:11.206Z,37.07
2018-03-25T05:58:37.465Z,36.63
2018-03-25T06:01:03.839Z,40.40
2018-03-25T06:03:30.080Z,36.63
2018-03-25T06:05:56.489Z,40.53
2018-03-25T06:08:22.774Z,35.57
2018-03-25T06:10:49.018Z,36.97
2018-03-25T06:13:15.300Z,34.80
2018-03-25T06:15:41.536Z,37.03
2018-03-25T06:18:07.808Z,36.53
2018-03-25T06:20:34.067Z,35.93
2018-03-25T06:23:00.412Z,37.47
2018-03-25T06:25:26.662Z,38.43
2018-03-25T06:27:52.932Z,37.20
2018-03-25T06:30:19.187Z,37.00
2018-03-25T06:32:45.444Z,37.00
2018-03-25T06:35:11.704Z,39.33
2018-03-25T06:37:38.805Z,36.63
2018-03-25T06:40:05.114Z,35.53
2018-03-25T06:42:31.352Z,32.73
2018-03-25T06:44:57.634Z,41.57
2018-03-25T06:47:23.864Z,38.73
2018-03-25T06:49:50.092Z,34.73
2018-03-25T06:52:16.370Z,46.70
2018-03-25T06:54:42.600Z,38.97
2018-03-25T06:57:08.913Z,37.53
2018-03-25T06:59:35.162Z,35.40
2018-03-25T07:02:01.446Z,36.13
2018-03-25T07:04:32.492Z,41.80
2018-03-25T07:06:58.744Z,36.67
2018-03-25T07:09:25.057Z,37.60
2018-03-25T07:11:51.380Z,38.50
2018-03-25T07:14:17.633Z,37.20
2018-03-25T07:16:43.924Z,40.27
2018-03-25T07:19:10.201Z,37.67
2018-03-25T07:21:36.472Z,40.53
2018-03-25T07:24:02.729Z,40.93
2018-03-25T07:26:28.980Z,43.73
2018-03-25T07:28:55.264Z,42.43
2018-03-25T07:31:21.496Z,39.73
2018-03-25T07:33:47.721Z,41.90
2018-03-25T07:36:14.061Z,45.10
2018-03-25T07:38:40.321Z,50.40
2018-03-25T07:41:06.609Z,46.77
2018-03-25T07:43:32.867Z,37.23
2018-03-25T07:45:59.154Z,40.27
2018-03-25T07:48:25.420Z,37.47
2018-03-25T07:50:51.708Z,43.20
2018-03-25T07:53:17.947Z,41.03
2018-03-25T07:55:44.193Z,43.03
2018-03-25T07:58:10.521Z,41.33
2018-03-25T08:00:36.768Z,37.33
2018-03-25T08:03:04.128Z,34.23
2018-03-25T08:05:30.402Z,37.80
2018-03-25T08:07:56.721Z,36.50
2018-03-25T08:10:22.980Z,35.37
2018-03-25T08:12:49.258Z,40.80
2018-03-25T08:15:15.573Z,35.30
2018-03-25T08:17:41.914Z,42.43
2018-03-25T08:20:08.216Z,37.80
2018-03-25T08:22:34.545Z,35.67
2018-03-25T08:25:00.820Z,39.43
2018-03-25T08:27:27.076Z,40.87
2018-03-25T08:29:53.391Z,33.80
2018-03-25T08:32:19.758Z,36.93
2018-03-25T08:34:46.024Z,39.50
2018-03-25T08:37:12.417Z,38.17
2018-03-25T08:39:38.661Z,37.80
2018-03-25T08:42:05.008Z,40.47
2018-03-25T08:44:31.241Z,35.43
2018-03-25T08:46:57.617Z,39.17
2018-03-25T08:49:23.881Z,34.83
2018-03-25T08:51:50.226Z,37.93
2018-03-25T08:54:16.553Z,35.87
2018-03-25T08:56:42.857Z,35.67
2018-03-25T08:59:09.735Z,35.53
2018-03-25T09:01:35.986Z,37.10
2018-03-25T09:04:02.278Z,33.67
2018-03-25T09:06:28.569Z,33.70
2018-03-25T09:08:54.888Z,33.90
2018-03-25T09:11:21.208Z,30.90
2018-03-25T09:13:47.485Z,31.40
2018-03-25T09:16:13.776Z,28.93
2018-03-25T09:18:40.072Z,30.17
2018-03-25T09:21:06.329Z,31.83
2018-03-25T09:23:32.588Z,38.23
2018-03-25T09:25:58.867Z,37.23
2018-03-25T09:28:25.136Z,32.50
2018-03-25T09:30:51.429Z,33.87
2018-03-25T09:33:17.681Z,30.63
2018-03-25T09:35:43.974Z,30.43
2018-03-25T09:38:10.225Z,30.23
2018-03-25T09:40:36.561Z,28.77
2018-03-25T09:43:02.837Z,34.53
2018-03-25T09:45:29.136Z,29.37
2018-03-25T09:47:55.434Z,27.03
2018-03-25T09:50:21.693Z,28.70
2018-03-25T09:52:47.981Z,32.80
2018-03-25T09:55:14.265Z,29.63
2018-03-25T09:57:40.571Z,29.63
2018-03-25T10:00:06.866Z,31.50
2018-03-25T10:02:39.183Z,30.67
2018-03-25T10:05:05.442Z,35.47
2018-03-25T10:07:31.819Z,33.23
2018-03-25T10:09:58.080Z,33.10
2018-03-25T10:12:24.342Z,31.17
2018-03-25T10:14:50.618Z,32.10
2018-03-25T10:17:16.881Z,32.47
2018-03-25T10:19:43.137Z,32.57
2018-03-25T10:22:09.444Z,31.47
2018-03-25T10:24:35.696Z,27.23
2018-03-25T10:27:04.180Z,41.07
2018-03-25T10:29:30.531Z,34.20
2018-03-25T10:31:56.785Z,30.23
2018-03-25T10:34:23.057Z,34.40
2018-03-25T10:36:49.353Z,33.33
2018-03-25T10:39:15.622Z,35.47
2018-03-25T10:41:41.880Z,30.88
2018-03-25T10:44:08.242Z,29.27
2018-03-25T10:46:34.640Z,31.25
2018-03-25T10:49:01.145Z,28.25
2018-03-25T10:51:27.509Z,27.02
2018-03-25T10:53:53.801Z,28.40
2018-03-25T10:56:20.169Z,27.30
2018-03-25T10:58:46.504Z,25.35
2018-03-25T11:01:12.844Z,23.40
2018-03-25T11:03:39.218Z,23.95
2018-03-25T11:06:05.461Z,26.62
2018-03-25T11:08:31.849Z,24.75
2018-03-25T11:10:58.148Z,26.05
2018-03-25T11:13:24.426Z,26.10
2018-03-25T11:15:50.673Z,24.80
2018-03-25T11:18:17.121Z,20.52
2018-03-25T11:20:43.422Z,23.98
2018-03-25T11:23:09.933Z,20.80
2018-03-25T11:25:36.230Z,22.80
2018-03-25T11:28:02.511Z,22.83
2018-03-25T11:30:28.878Z,20.40
2018-03-25T11:32:55.625Z,19.20
2018-03-25T11:35:22.304Z,20.48
2018-03-25T11:37:48.612Z,22.17
2018-03-25T11:40:14.972Z,19.95
2018-03-25T11:42:41.215Z,22.75
2018-03-25T11:45:07.700Z,24.30
2018-03-25T11:47:34.026Z,23.15
2018-03-25T11:50:00.565Z,25.08
2018-03-25T11:52:26.993Z,19.92
2018-03-25T11:54:53.228Z,26.60
2018-03-25T11:57:19.550Z,24.52
2018-03-25T11:59:45.824Z,22.45
2018-03-25T12:02:12.248Z,23.40
2018-03-25T12:04:38.577Z,22.45
2018-03-25T12:07:05.067Z,22.50
2018-03-25T12:09:31.354Z,22.00
2018-03-25T12:11:57.878Z,23.80
2018-03-25T12:14:24.184Z,24.20
2018-03-25T12:16:50.453Z,20.58
2018-03-25T12:19:16.786Z,21.95
2018-03-25T12:21:43.064Z,25.45
2018-03-25T12:24:09.307Z,23.50
2018-03-25T12:26:35.905Z,23.10
2018-03-25T12:29:02.156Z,23.45
2018-03-25T12:31:28.577Z,24.35
2018-03-25T12:33:54.935Z,22.08
2018-03-25T12:36:21.341Z,24.30
2018-03-25T12:38:47.576Z,23.40
2018-03-25T12:41:13.853Z,26.27
2018-03-25T12:43:40.124Z,43.47
2018-03-25T12:46:06.508Z,26.40
2018-03-25T12:48:32.877Z,24.95
2018-03-25T12:50:59.128Z,22.67
2018-03-25T12:53:25.507Z,22.08
2018-03-25T12:55:51.790Z,23.50
2018-03-25T12:58:18.246Z,24.55
2018-03-25T13:00:44.515Z,22.87
2018-03-25T13:03:10.895Z,24.92
2018-03-25T13:05:37.188Z,24.12
2018-03-25T13:08:03.469Z,22.55
2018-03-25T13:10:29.720Z,24.37
2018-03-25T13:12:56.352Z,22.40
2018-03-25T13:15:22.629Z,23.92
2018-03-25T13:17:49.045Z,24.08
2018-03-25T13:20:15.343Z,24.08
2018-03-25T13:22:41.725Z,24.87
2018-03-25T13:25:08.074Z,25.10
2018-03-25T13:27:34.389Z,26.10
2018-03-25T13:30:00.860Z,25.95
2018-03-25T13:32:27.171Z,28.48
2018-03-25T13:34:53.641Z,26.12
2018-03-25T13:37:19.928Z,28.05
2018-03-25T13:39:46.289Z,24.87
2018-03-25T13:42:12.626Z,30.23
2018-03-25T13:44:39.017Z,29.10
2018-03-25T13:47:05.304Z,26.83
2018-03-25T13:49:31.584Z,29.60
2018-03-25T13:51:58.131Z,26.30
2018-03-25T13:54:24.523Z,27.85
2018-03-25T13:56:50.873Z,28.85
2018-03-25T13:59:17.178Z,30.33
2018-03-25T14:01:43.709Z,27.15
2018-03-25T14:04:09.961Z,29.40
2018-03-25T14:06:36.385Z,29.83
2018-03-25T14:09:02.701Z,30.90
2018-03-25T14:11:29.151Z,29.58
2018-03-25T14:13:55.472Z,29.70
2018-03-25T14:16:21.888Z,31.25
2018-03-25T14:18:48.198Z,27.33
2018-03-25T14:21:14.465Z,31.85
2018-03-25T14:23:40.910Z,28.80
2018-03-25T14:26:07.165Z,30.67
2018-03-25T14:28:33.548Z,30.17
2018-03-25T14:30:59.847Z,29.73
2018-03-25T14:33:26.133Z,26.50
2018-03-25T14:35:52.409Z,26.60
2018-03-25T14:38:18.781Z,26.55
2018-03-25T14:40:45.069Z,28.25
2018-03-25T14:43:11.358Z,26.87
2018-03-25T14:45:37.633Z,31.50
2018-03-25T14:48:04.130Z,30.70
2018-03-25T14:50:30.456Z,33.10
2018-03-25T14:52:56.804Z,30.75
2018-03-25T14:55:23.118Z,35.55
2018-03-25T14:57:49.403Z,35.33
2018-03-25T15:00:15.914Z,32.05
2018-03-25T15:02:42.191Z,30.55
2018-03-25T15:05:08.636Z,32.38
2018-03-25T15:07:34.934Z,33.13
2018-03-25T15:10:01.449Z,30.15
2018-03-25T15:12:27.765Z,40.22
2018-03-25T15:14:54.078Z,42.42
2018-03-25T15:17:20.410Z,31.30
2018-03-25T15:19:46.881Z,30.67
2018-03-25T15:22:13.186Z,31.83
2018-03-25T15:24:40.007Z,29.02
2018-03-25T15:27:06.349Z,28.40
2018-03-25T15:29:32.641Z,35.17
2018-03-25T15:31:58.955Z,28.90
2018-03-25T15:34:25.277Z,33.13
2018-03-25T15:36:51.575Z,30.62
2018-03-25T15:39:18.096Z,32.67
2018-03-25T15:41:44.345Z,31.73
2018-03-25T15:44:10.875Z,34.03
2018-03-25T15:46:37.164Z,32.85
2018-03-25T15:49:03.559Z,28.27
2018-03-25T15:51:29.831Z,28.67
2018-03-25T15:53:56.132Z,30.23
2018-03-25T15:56:22.588Z,32.37
2018-03-25T15:58:48.863Z,30.33
2018-03-25T16:01:15.163Z,51.93
2018-03-25T16:03:41.433Z,66.40
2018-03-25T16:06:07.683Z,37.90
2018-03-25T16:08:34.048Z,29.47
2018-03-25T16:11:00.336Z,30.37
2018-03-25T16:13:26.598Z,35.63
2018-03-25T16:15:52.887Z,30.43
2018-03-25T16:18:19.184Z,31.40
2018-03-25T16:20:45.559Z,30.43
2018-03-25T16:23:11.852Z,33.43
2018-03-25T16:25:38.130Z,30.70
2018-03-25T16:28:04.503Z,30.37
2018-03-25T16:30:30.768Z,33.17
2018-03-25T16:32:57.037Z,32.57
2018-03-25T16:35:23.337Z,29.97
2018-03-25T16:37:49.606Z,32.40
2018-03-25T16:40:15.929Z,34.03
2018-03-25T16:42:42.165Z,35.37
2018-03-25T16:45:08.425Z,33.50
2018-03-25T16:47:34.696Z,35.70
2018-03-25T16:50:00.972Z,35.23
2018-03-25T16:52:27.694Z,37.63
2018-03-25T16:54:54.100Z,34.97
2018-03-25T16:57:20.463Z,36.97
2018-03-25T16:59:46.692Z,65.37
2018-03-25T17:02:13.064Z,56.93
2018-03-25T17:04:39.313Z,36.03
2018-03-25T17:07:05.581Z,38.67
2018-03-25T17:09:31.925Z,34.63
2018-03-25T17:11:58.177Z,36.47
2018-03-25T17:14:24.508Z,33.73
2018-03-25T17:16:50.776Z,44.60
2018-03-25T17:19:17.080Z,35.70
2018-03-25T17:21:44.330Z,37.20
2018-03-25T17:24:10.624Z,35.73
2018-03-25T17:26:36.967Z,35.53
2018-03-25T17:29:03.339Z,49.60
2018-03-25T17:31:29.726Z,58.23
2018-03-25T17:33:55.996Z,42.03
2018-03-25T17:36:22.285Z,37.97
2018-03-25T17:38:48.545Z,37.23
2018-03-25T17:41:14.886Z,54.70
2018-03-25T17:43:41.373Z,38.70
2018-03-25T17:46:07.674Z,43.37
2018-03-25T17:48:34.104Z,37.03
2018-03-25T17:51:00.397Z,34.03
2018-03-25T17:53:26.702Z,41.33
2018-03-25T17:55:52.962Z,39.13
2018-03-25T17:58:19.348Z,40.00
2018-03-25T18:00:45.649Z,40.30
2018-03-25T18:03:11.929Z,39.43
2018-03-25T18:05:38.495Z,40.87
2018-03-25T18:08:04.806Z,37.90
2018-03-25T18:10:31.116Z,39.43
2018-03-25T18:12:57.479Z,38.53
2018-03-25T18:15:23.742Z,40.83
2018-03-25T18:17:50.070Z,40.80
2018-03-25T18:20:16.408Z,44.70
2018-03-25T18:22:42.875Z,37.77
2018-03-25T18:25:09.244Z,43.37
2018-03-25T18:27:35.623Z,39.37
2018-03-25T18:30:01.868Z,36.70
2018-03-25T18:32:28.169Z,39.13
2018-03-25T18:34:54.480Z,34.20
2018-03-25T18:37:20.787Z,36.93
2018-03-25T18:39:47.123Z,41.90
2018-03-25T18:42:13.396Z,40.33
2018-03-25T18:44:39.910Z,40.23
2018-03-25T18:47:06.168Z,38.87
2018-03-25T18:49:32.420Z,39.43
2018-03-25T18:51:58.793Z,41.13
2018-03-25T18:54:25.065Z,43.87
2018-03-25T18:56:51.293Z,43.40
2018-03-25T18:59:17.568Z,40.70
2018-03-25T19:01:43.807Z,43.50
2018-03-25T19:04:10.053Z,41.33
2018-03-25T19:06:36.341Z,42.27
2018-03-25T19:09:02.700Z,43.53
2018-03-25T19:11:28.948Z,41.90
2018-03-25T19:13:55.253Z,44.77
2018-03-25T19:16:21.506Z,40.90
2018-03-25T19:18:47.747Z,42.10
2018-03-25T19:21:14.254Z,40.67
2018-03-25T19:23:40.701Z,43.20
2018-03-25T19:26:06.937Z,43.50
2018-03-25T19:28:33.326Z,40.07
2018-03-25T19:30:59.773Z,46.40
2018-03-25T19:33:26.028Z,49.47
2018-03-25T19:35:52.309Z,48.67
2018-03-25T19:38:18.589Z,44.00
2018-03-25T19:40:44.885Z,43.53
2018-03-25T19:43:11.210Z,50.03
2018-03-25T19:45:37.626Z,43.97
2018-03-25T19:48:04.078Z,47.10
2018-03-25T19:50:30.852Z,52.73
2018-03-25T19:52:57.506Z,44.97
2018-03-25T19:55:24.056Z,43.10
2018-03-25T19:57:50.478Z,45.63
2018-03-25T20:00:16.770Z,48.30
2018-03-25T20:02:43.013Z,46.00
2018-03-25T20:05:09.249Z,42.83
2018-03-25T20:07:35.665Z,43.63
2018-03-25T20:10:02.068Z,48.37
2018-03-25T20:12:28.357Z,46.00
2018-03-25T20:14:54.768Z,41.53
2018-03-25T20:17:21.136Z,44.33
2018-03-25T20:19:47.388Z,49.67
2018-03-25T20:22:13.639Z,41.47
2018-03-25T20:24:39.888Z,47.63
2018-03-25T20:27:06.220Z,45.73
2018-03-25T20:29:32.620Z,40.53
2018-03-25T20:31:58.879Z,41.33
2018-03-25T20:34:25.218Z,40.97
2018-03-25T20:36:51.562Z,43.17
2018-03-25T20:39:17.825Z,44.97
2018-03-25T20:41:44.201Z,41.93
2018-03-25T20:44:10.596Z,51.00
2018-03-25T20:46:36.844Z,41.27
2018-03-25T20:49:03.144Z,39.83
2018-03-25T20:51:29.676Z,45.67
2018-03-25T20:53:55.933Z,48.60
2018-03-25T20:56:22.369Z,44.03
2018-03-25T20:58:48.625Z,43.13
2018-03-25T21:01:15.017Z,43.47
2018-03-25T21:03:41.381Z,45.33
2018-03-25T21:06:07.941Z,41.30
2018-03-25T21:08:34.194Z,43.73
2018-03-25T21:11:00.958Z,44.53
2018-03-25T21:13:27.373Z,44.53
2018-03-25T21:15:53.718Z,42.17
2018-03-25T21:18:20.039Z,43.73
2018-03-25T21:20:46.301Z,41.33
2018-03-25T21:23:12.700Z,43.63
2018-03-25T21:25:40.070Z,47.10
2018-03-25T21:28:06.450Z,45.60
2018-03-25T21:30:32.702Z,44.70
2018-03-25T21:32:58.944Z,47.67
2018-03-25T21:35:25.342Z,41.33
2018-03-25T21:37:51.609Z,42.57
2018-03-25T21:40:18.892Z,41.73
2018-03-25T21:42:45.172Z,43.53
2018-03-25T21:45:11.627Z,42.50
2018-03-25T21:47:37.911Z,44.90
2018-03-25T21:50:04.579Z,47.30
2018-03-25T21:52:30.820Z,46.93
2018-03-25T21:54:57.383Z,46.30
2018-03-25T21:57:23.738Z,43.13
2018-03-25T21:59:50.136Z,44.00
2018-03-25T22:02:16.584Z,43.60
2018-03-25T22:04:42.910Z,42.00
2018-03-25T22:07:09.275Z,43.90
2018-03-25T22:09:35.609Z,45.87
2018-03-25T22:12:01.894Z,44.10
2018-03-25T22:14:28.164Z,49.43
2018-03-25T22:16:54.527Z,46.17
2018-03-25T22:19:20.801Z,45.40
2018-03-25T22:21:47.265Z,44.73
2018-03-25T22:24:13.570Z,42.23
2018-03-25T22:26:39.949Z,42.63
2018-03-25T22:29:06.233Z,48.27
2018-03-25T22:31:32.537Z,42.30
2018-03-25T22:33:58.826Z,44.30
2018-03-25T22:36:25.096Z,43.37
2018-03-25T22:38:51.789Z,43.23
2018-03-25T22:41:18.054Z,42.60
2018-03-25T22:43:44.459Z,53.53
2018-03-25T22:46:10.903Z,46.97
2018-03-25T22:48:37.155Z,46.17
2018-03-25T22:51:03.745Z,45.10
2018-03-25T22:53:29.981Z,48.43
2018-03-25T22:55:56.309Z,48.37
2018-03-25T22:58:22.562Z,48.63
2018-03-25T23:00:48.897Z,49.50
2018-03-25T23:03:15.298Z,48.20
2018-03-25T23:05:41.584Z,46.03
2018-03-25T23:08:07.848Z,49.87
2018-03-25T23:10:34.204Z,48.33
2018-03-25T23:13:00.521Z,47.40
2018-03-25T23:15:26.838Z,48.07
2018-03-25T23:17:53.089Z,52.80
2018-03-25T23:20:19.357Z,44.77
2018-03-25T23:22:45.608Z,45.80
2018-03-25T23:25:11.868Z,50.13
2018-03-25T23:27:38.121Z,47.37
2018-03-25T23:30:04.420Z,44.60
2018-03-25T23:32:30.668Z,45.40
2018-03-25T23:34:56.959Z,47.90
2018-03-25T23:37:23.192Z,49.87
2018-03-25T23:39:49.437Z,48.43
2018-03-25T23:42:15.738Z,51.37
2018-03-25T23:44:42.001Z,47.43
2018-03-25T23:47:08.273Z,53.43
2018-03-25T23:49:34.535Z,55.30
2018-03-25T23:52:00.795Z,48.53
2018-03-25T23:54:27.052Z,50.73
2018-03-25T23:56:53.383Z,50.23
2018-03-25T23:59:19.641Z,48.13
